createdAt,value
2023-02-23T00:01:41.908Z,101424.59
2023-02-23T00:04:10.526Z,101415.38
2023-02-23T00:06:39.564Z,101410.09
2023-02-23T00:09:22.875Z,101412.69
2023-02-23T00:11:51.518Z,101401.91
2023-02-23T00:14:21.426Z,101405.06
2023-02-23T00:16:49.460Z,101401.41
2023-02-23T00:19:17.702Z,101399.53
2023-02-23T00:21:46.759Z,101392.19
2023-02-23T00:24:16.712Z,101393.78
2023-02-23T00:26:45.374Z,101390.94
2023-02-23T00:29:17.416Z,101385.53
2023-02-23T00:31:47.402Z,101388.09
2023-02-23T00:34:16.940Z,101387.13
2023-02-23T00:36:44.922Z,101377.31
2023-02-23T00:39:21.582Z,101379.28
2023-02-23T00:41:50.281Z,101376.59
2023-02-23T00:44:18.220Z,101368.03
2023-02-23T00:46:49.610Z,101337.19
2023-02-23T00:49:18.142Z,101348.72
2023-02-23T00:51:46.920Z,101365.81
2023-02-23T00:54:16.142Z,101345.03
2023-02-23T00:56:44.200Z,101358.84
2023-02-23T00:59:13.150Z,101354.31
2023-02-23T01:01:42.808Z,101351.63
2023-02-23T01:04:14.009Z,101349.06
2023-02-23T01:06:43.105Z,101349.06
2023-02-23T01:09:13.961Z,101345.50
2023-02-23T01:11:42.433Z,101339.19
2023-02-23T01:14:12.100Z,101339.38
2023-02-23T01:16:42.256Z,101335.97
2023-02-23T01:19:13.386Z,101302.47
2023-02-23T01:21:43.954Z,101324.31
2023-02-23T01:24:13.670Z,101322.75
2023-02-23T01:26:44.802Z,101317.47
2023-02-23T01:29:14.979Z,101319.31
2023-02-23T01:31:45.634Z,101314.91
2023-02-23T01:34:19.510Z,101311.34
2023-02-23T01:36:47.715Z,101314.03
2023-02-23T01:39:18.135Z,101302.38
2023-02-23T01:41:46.669Z,101309.63
2023-02-23T01:44:53.251Z,101298.97
2023-02-23T01:47:21.506Z,101291.13
2023-02-23T01:49:51.222Z,101292.88
2023-02-23T01:52:20.838Z,101289.31
2023-02-23T01:54:53.006Z,101282.78
2023-02-23T01:57:26.982Z,101274.56
2023-02-23T01:59:56.111Z,101274.44
2023-02-23T02:02:33.140Z,101273.34
2023-02-23T02:05:05.117Z,101273.47
2023-02-23T02:07:35.973Z,101268.91
2023-02-23T02:10:39.656Z,101262.94
2023-02-23T02:13:09.823Z,101244.19
2023-02-23T02:15:53.821Z,101246.88
2023-02-23T02:18:31.313Z,101248.84
2023-02-23T02:21:36.029Z,101238.31
2023-02-23T02:24:36.845Z,101242.13
2023-02-23T02:27:21.885Z,101237.75
2023-02-23T02:30:28.582Z,101232.63
2023-02-23T02:33:23.678Z,101231.75
2023-02-23T02:36:15.789Z,101234.44
2023-02-23T02:38:54.953Z,101224.53
2023-02-23T02:41:35.578Z,101224.63
2023-02-23T02:44:12.172Z,101215.69
2023-02-23T02:46:44.654Z,101202.22
2023-02-23T02:49:17.741Z,101202.22
2023-02-23T02:51:52.738Z,101198.53
2023-02-23T02:54:29.169Z,101198.69
2023-02-23T02:57:01.018Z,101189.59
2023-02-23T02:59:46.810Z,101166.47
2023-02-23T03:02:35.674Z,101191.72
2023-02-23T03:05:22.237Z,101184.75
2023-02-23T03:08:17.656Z,101182.75
2023-02-23T03:11:10.658Z,101179.34
2023-02-23T03:14:07.115Z,101174.78
2023-02-23T03:17:01.538Z,101172.09
2023-02-23T03:19:49.910Z,101167.81
2023-02-23T03:22:40.995Z,101165.97
2023-02-23T03:25:32.258Z,101159.72
2023-02-23T03:28:30.126Z,101160.72
2023-02-23T03:31:25.453Z,101158.91
2023-02-23T03:34:19.314Z,101151.78
2023-02-23T03:37:09.592Z,101137.47
2023-02-23T03:39:59.895Z,101146.41
2023-02-23T03:42:49.295Z,101133.84
2023-02-23T03:45:40.143Z,101132.91
2023-02-23T03:48:29.394Z,101131.16
2023-02-23T03:51:18.560Z,101131.31
2023-02-23T03:54:12.469Z,101125.91
2023-02-23T03:57:01.613Z,101121.50
2023-02-23T03:59:52.670Z,101120.94
2023-02-23T04:02:41.315Z,101120.63
2023-02-23T04:05:36.606Z,101085.22
2023-02-23T04:08:25.889Z,101115.25
2023-02-23T04:11:19.672Z,101109.84
2023-02-23T04:13:51.792Z,101098.34
2023-02-23T04:16:19.485Z,101107.16
2023-02-23T04:18:48.801Z,101103.38
2023-02-23T04:21:17.153Z,101096.13
2023-02-23T04:23:45.386Z,101094.28
2023-02-23T04:26:13.639Z,101085.34
2023-02-23T04:28:41.600Z,101093.41
2023-02-23T04:31:09.595Z,101089.78
2023-02-23T04:33:37.646Z,101088.81
2023-02-23T04:36:07.571Z,101088.53
2023-02-23T04:38:35.457Z,101090.50
2023-02-23T04:41:03.337Z,101079.94
2023-02-23T04:43:31.337Z,101079.72
2023-02-23T04:45:59.442Z,101070.03
2023-02-23T04:48:27.452Z,101065.63
2023-02-23T04:50:55.819Z,101061.84
2023-02-23T04:53:27.142Z,101061.72
2023-02-23T04:55:55.244Z,101048.00
2023-02-23T04:58:23.226Z,101056.69
2023-02-23T05:00:51.236Z,101054.97
2023-02-23T05:03:19.217Z,101030.00
2023-02-23T05:05:47.211Z,101046.78
2023-02-23T05:08:15.194Z,101048.59
2023-02-23T05:10:44.579Z,101051.31
2023-02-23T05:13:12.582Z,101034.28
2023-02-23T05:15:40.787Z,101031.56
2023-02-23T05:18:08.983Z,101007.53
2023-02-23T05:20:37.051Z,101028.03
2023-02-23T05:23:05.169Z,101018.38
2023-02-23T05:25:33.446Z,101023.75
2023-02-23T05:28:02.699Z,101019.22
2023-02-23T05:30:30.754Z,101022.78
2023-02-23T05:32:58.823Z,101013.84
2023-02-23T05:35:26.958Z,101005.59
2023-02-23T05:37:54.908Z,100996.78
2023-02-23T05:40:22.964Z,100995.94
2023-02-23T05:42:50.950Z,100994.25
2023-02-23T05:45:20.427Z,100987.00
2023-02-23T05:47:49.281Z,100979.78
2023-02-23T05:50:17.221Z,100984.19
2023-02-23T05:52:45.364Z,100977.78
2023-02-23T05:55:13.546Z,100976.97
2023-02-23T05:57:42.762Z,100972.53
2023-02-23T06:00:13.499Z,100965.44
2023-02-23T06:02:43.037Z,100966.03
2023-02-23T06:05:11.694Z,100958.22
2023-02-23T06:07:39.868Z,100951.97
2023-02-23T06:10:08.491Z,100959.31
2023-02-23T06:12:36.690Z,100948.69
2023-02-23T06:15:05.275Z,100950.53
2023-02-23T06:17:33.741Z,100943.56
2023-02-23T06:20:04.800Z,100936.34
2023-02-23T06:22:32.800Z,100932.78
2023-02-23T06:25:00.764Z,100930.09
2023-02-23T06:27:28.736Z,100935.50
2023-02-23T06:29:56.976Z,100929.13
2023-02-23T06:32:25.479Z,100919.47
2023-02-23T06:34:53.468Z,100922.16
2023-02-23T06:37:22.758Z,100924.72
2023-02-23T06:39:50.980Z,100923.00
2023-02-23T06:42:18.967Z,100921.31
2023-02-23T06:44:46.946Z,100921.16
2023-02-23T06:47:15.015Z,100922.72
2023-02-23T06:49:43.056Z,100914.63
2023-02-23T06:52:13.478Z,100909.25
2023-02-23T06:54:43.167Z,100907.41
2023-02-23T06:57:11.098Z,100904.00
2023-02-23T06:59:39.321Z,100906.56
2023-02-23T07:02:07.567Z,100899.47
2023-02-23T07:04:35.620Z,100902.28
2023-02-23T07:07:03.772Z,100899.75
2023-02-23T07:09:31.936Z,100861.66
2023-02-23T07:12:01.669Z,100850.91
2023-02-23T07:14:29.551Z,100881.59
2023-02-23T07:16:57.620Z,100883.31
2023-02-23T07:19:25.540Z,100877.91
2023-02-23T07:21:53.646Z,100873.34
2023-02-23T07:24:21.972Z,100875.66
2023-02-23T07:26:50.311Z,100872.09
2023-02-23T07:29:20.153Z,100869.97
2023-02-23T07:31:50.054Z,100867.28
2023-02-23T07:34:18.387Z,100867.00
2023-02-23T07:36:46.426Z,100859.78
2023-02-23T07:39:14.491Z,100866.19
2023-02-23T07:41:42.562Z,100856.38
2023-02-23T07:44:20.831Z,100860.66
2023-02-23T07:46:49.588Z,100858.91
2023-02-23T07:49:17.601Z,100865.16
2023-02-23T07:51:45.600Z,100851.97
2023-02-23T07:54:13.548Z,100847.03
2023-02-23T07:56:41.523Z,100855.13
2023-02-23T07:59:09.523Z,100853.19
2023-02-23T08:01:38.967Z,100848.34
2023-02-23T08:04:07.174Z,100846.34
2023-02-23T08:06:35.063Z,100837.97
2023-02-23T08:09:04.761Z,100836.72
2023-02-23T08:11:32.846Z,100832.75
2023-02-23T08:14:01.041Z,100826.94
2023-02-23T08:16:29.700Z,100810.75
2023-02-23T08:18:59.563Z,100823.66
2023-02-23T08:21:29.344Z,100823.28
2023-02-23T08:23:57.580Z,100823.00
2023-02-23T08:26:26.105Z,100821.00
2023-02-23T08:28:54.341Z,100818.16
2023-02-23T08:31:24.411Z,100812.03
2023-02-23T08:33:53.627Z,100808.78
2023-02-23T08:36:23.318Z,100802.56
2023-02-23T08:38:51.575Z,100796.84
2023-02-23T08:41:19.936Z,100801.25
2023-02-23T08:43:48.806Z,100794.56
2023-02-23T08:46:18.858Z,100789.91
2023-02-23T08:48:47.029Z,100788.78
2023-02-23T08:51:15.668Z,100791.03
2023-02-23T08:53:45.058Z,100789.88
2023-02-23T08:56:14.745Z,100784.66
2023-02-23T08:58:43.703Z,100781.38
2023-02-23T09:01:19.079Z,100769.16
2023-02-23T09:03:47.408Z,100760.94
2023-02-23T09:06:19.295Z,100767.72
2023-02-23T09:08:48.760Z,100770.16
2023-02-23T09:11:16.777Z,100763.72
2023-02-23T09:13:45.702Z,100766.88
2023-02-23T09:16:13.742Z,100756.06
2023-02-23T09:18:41.936Z,100751.38
2023-02-23T09:21:18.928Z,100753.91
2023-02-23T09:23:51.477Z,100740.59
2023-02-23T09:26:21.138Z,100741.44
2023-02-23T09:28:49.649Z,100742.25
2023-02-23T09:31:20.637Z,100734.03
2023-02-23T09:33:48.979Z,100723.94
2023-02-23T09:36:19.015Z,100725.50
2023-02-23T09:38:52.357Z,100717.38
2023-02-23T09:41:52.297Z,100721.06
2023-02-23T09:44:32.241Z,100720.09
2023-02-23T09:47:11.413Z,100725.19
2023-02-23T09:49:43.527Z,100713.53
2023-02-23T09:52:19.326Z,100716.94
2023-02-23T09:54:49.297Z,100713.25
2023-02-23T09:57:23.727Z,100704.16
2023-02-23T09:59:51.812Z,100705.56
2023-02-23T10:02:30.554Z,100707.66
2023-02-23T10:05:03.311Z,100699.41
2023-02-23T10:07:38.884Z,100696.56
2023-02-23T10:10:22.389Z,100700.81
2023-02-23T10:13:01.500Z,100693.25
2023-02-23T10:15:37.227Z,100684.28
2023-02-23T10:18:16.083Z,100685.03
2023-02-23T10:20:50.932Z,100683.88
2023-02-23T10:23:25.272Z,100680.00
2023-02-23T10:25:59.444Z,100672.34
2023-02-23T10:28:29.723Z,100670.16
2023-02-23T10:30:58.825Z,100657.91
2023-02-23T10:33:34.917Z,100659.00
2023-02-23T10:36:16.561Z,100662.25
2023-02-23T10:38:44.604Z,100657.00
2023-02-23T10:41:15.037Z,100659.41
2023-02-23T10:43:43.543Z,100653.16
2023-02-23T10:46:18.580Z,100640.94
2023-02-23T10:48:48.654Z,100632.44
2023-02-23T10:51:22.727Z,100636.28
2023-02-23T10:53:52.941Z,100638.00
2023-02-23T10:56:24.320Z,100629.28
2023-02-23T10:58:55.138Z,100640.63
2023-02-23T11:01:41.931Z,100631.22
2023-02-23T11:04:20.430Z,100628.53
2023-02-23T11:06:48.679Z,100619.69
2023-02-23T11:09:41.744Z,100620.09
2023-02-23T11:12:25.527Z,100621.78
2023-02-23T11:14:55.160Z,100622.66
2023-02-23T11:17:33.073Z,100619.78
2023-02-23T11:20:03.739Z,100603.72
2023-02-23T11:22:37.465Z,100592.16
2023-02-23T11:25:16.810Z,100596.63
2023-02-23T11:27:51.630Z,100589.00
2023-02-23T11:30:24.585Z,100585.44
2023-02-23T11:32:54.373Z,100579.03
2023-02-23T11:35:31.724Z,100574.63
2023-02-23T11:37:59.898Z,100584.84
2023-02-23T11:40:30.084Z,100545.41
2023-02-23T11:43:08.571Z,100570.94
2023-02-23T11:45:45.958Z,100573.38
2023-02-23T11:48:23.493Z,100564.69
2023-02-23T11:50:51.757Z,100560.47
2023-02-23T11:53:28.460Z,100557.63
2023-02-23T11:56:07.908Z,100557.94
2023-02-23T11:58:40.527Z,100543.47
2023-02-23T12:01:12.400Z,100547.59
2023-02-23T12:03:47.909Z,100538.09
2023-02-23T12:06:30.579Z,100537.78
2023-02-23T12:09:06.153Z,100536.41
2023-02-23T12:11:40.649Z,100533.84
2023-02-23T12:14:21.927Z,100523.03
2023-02-23T12:16:53.972Z,100525.06
2023-02-23T12:19:26.936Z,100531.13
2023-02-23T12:22:03.419Z,100512.97
2023-02-23T12:24:42.153Z,100508.63
2023-02-23T12:27:15.388Z,100520.28
2023-02-23T12:29:59.469Z,100510.63
2023-02-23T12:32:32.304Z,100511.06
2023-02-23T12:35:07.747Z,100508.16
2023-02-23T12:37:40.296Z,100510.63
2023-02-23T12:40:17.727Z,100512.63
2023-02-23T12:42:55.261Z,100507.38
2023-02-23T12:45:30.263Z,100499.69
2023-02-23T12:48:07.535Z,100496.50
2023-02-23T12:50:43.330Z,100495.19
2023-02-23T12:53:21.654Z,100495.44
2023-02-23T12:56:05.088Z,100488.56
2023-02-23T12:58:42.057Z,100489.09
2023-02-23T13:01:18.673Z,100482.69
2023-02-23T13:03:58.281Z,100481.69
2023-02-23T13:06:36.934Z,100471.03
2023-02-23T13:09:19.220Z,100461.69
2023-02-23T13:12:08.380Z,100462.16
2023-02-23T13:14:44.264Z,100453.69
2023-02-23T13:17:30.118Z,100445.59
2023-02-23T13:20:02.413Z,100447.00
2023-02-23T13:22:38.626Z,100445.66
2023-02-23T13:25:21.601Z,100448.16
2023-02-23T13:27:53.856Z,100447.38
2023-02-23T13:30:22.722Z,100443.13
2023-02-23T13:32:53.000Z,100442.13
2023-02-23T13:35:22.002Z,100439.06
2023-02-23T13:37:54.236Z,100433.66
2023-02-23T13:40:30.859Z,100434.03
2023-02-23T13:43:09.881Z,100434.41
2023-02-23T13:45:57.663Z,100421.97
2023-02-23T13:48:56.071Z,100423.22
2023-02-23T13:51:34.031Z,100415.78
2023-02-23T13:54:06.235Z,100393.53
2023-02-23T13:56:42.926Z,100420.03
2023-02-23T13:59:18.448Z,100416.34
2023-02-23T14:01:49.024Z,100410.09
2023-02-23T14:04:24.534Z,100404.53
2023-02-23T14:06:56.585Z,100407.25
2023-02-23T14:09:30.899Z,100404.53
2023-02-23T14:12:05.975Z,100402.25
2023-02-23T14:14:43.437Z,100393.13
2023-02-23T14:17:50.577Z,100388.88
2023-02-23T14:20:40.765Z,100390.75
2023-02-23T14:23:53.531Z,100382.31
2023-02-23T14:26:39.774Z,100389.25
2023-02-23T14:29:28.023Z,100391.31
2023-02-23T14:31:59.167Z,100382.06
2023-02-23T14:34:49.898Z,100366.06
2023-02-23T14:37:25.230Z,100324.06
2023-02-23T14:39:55.762Z,100349.16
2023-02-23T14:42:27.330Z,100350.88
2023-02-23T14:44:56.450Z,100312.88
2023-02-23T14:47:27.736Z,100347.94
2023-02-23T14:49:58.471Z,100340.19
2023-02-23T14:52:30.152Z,100345.91
2023-02-23T14:55:15.514Z,100332.69
2023-02-23T14:57:44.899Z,100332.53
2023-02-23T15:00:23.060Z,100330.06
2023-02-23T15:02:57.859Z,100325.50
2023-02-23T15:05:27.987Z,100332.06
2023-02-23T15:08:01.217Z,100330.84
2023-02-23T15:10:33.075Z,100322.81
2023-02-23T15:13:02.401Z,100305.44
2023-02-23T15:15:31.817Z,100313.53
2023-02-23T15:18:04.056Z,100309.78
2023-02-23T15:23:04.811Z,100308.56
2023-02-23T15:25:39.367Z,100306.34
2023-02-23T15:28:23.726Z,100300.03
2023-02-23T15:30:54.719Z,100303.50
2023-02-23T15:33:28.739Z,100289.47
2023-02-23T15:36:03.207Z,100284.25
2023-02-23T15:38:43.558Z,100287.91
2023-02-23T15:41:23.108Z,100275.56
2023-02-23T15:43:51.285Z,100279.00
2023-02-23T15:46:25.604Z,100270.81
2023-02-23T15:48:55.808Z,100267.50
2023-02-23T15:51:32.811Z,100261.63
2023-02-23T15:54:03.887Z,100260.47
2023-02-23T15:56:35.328Z,100253.06
2023-02-23T15:59:08.287Z,100239.72
2023-02-23T16:01:44.201Z,100250.72
2023-02-23T16:04:18.828Z,100223.47
2023-02-23T16:06:55.530Z,100255.50
2023-02-23T16:09:29.885Z,100264.97
2023-02-23T16:12:02.800Z,100260.94
2023-02-23T16:14:35.141Z,100243.25
2023-02-23T16:17:11.696Z,100236.16
2023-02-23T16:19:41.973Z,100236.84
2023-02-23T16:22:21.424Z,100233.19
2023-02-23T16:25:02.862Z,100242.16
2023-02-23T16:27:31.527Z,100231.97
2023-02-23T16:30:01.655Z,100237.91
2023-02-23T16:32:38.893Z,100236.22
2023-02-23T16:35:16.041Z,100240.75
2023-02-23T16:37:53.324Z,100243.63
2023-02-23T16:40:22.772Z,100233.81
2023-02-23T16:42:51.454Z,100234.00
2023-02-23T16:45:20.653Z,100220.13
2023-02-23T16:47:48.977Z,100211.69
2023-02-23T16:50:21.932Z,100212.31
2023-02-23T16:52:53.049Z,100210.78
2023-02-23T16:55:25.757Z,100199.31
2023-02-23T16:57:55.884Z,100201.28
2023-02-23T17:00:26.843Z,100194.53
2023-02-23T17:02:55.642Z,100197.41
2023-02-23T17:05:24.730Z,100193.53
2023-02-23T17:07:53.683Z,100194.72
2023-02-23T17:10:26.108Z,100192.47
2023-02-23T17:12:55.220Z,100201.63
2023-02-23T17:15:25.143Z,100204.47
2023-02-23T17:17:56.098Z,100201.78
2023-02-23T17:20:25.990Z,100193.69
2023-02-23T17:22:54.664Z,100195.38
2023-02-23T17:25:26.642Z,100160.03
2023-02-23T17:27:55.000Z,100191.84
2023-02-23T17:30:23.916Z,100193.53
2023-02-23T17:32:54.214Z,100190.63
2023-02-23T17:35:22.579Z,100193.50
2023-02-23T17:37:50.956Z,100189.25
2023-02-23T17:40:26.258Z,100185.72
2023-02-23T17:42:56.106Z,100175.16
2023-02-23T17:45:24.564Z,100185.16
2023-02-23T17:47:53.015Z,100186.88
2023-02-23T17:50:21.705Z,100185.16
2023-02-23T17:52:50.224Z,100185.16
2023-02-23T17:55:19.769Z,100191.09
2023-02-23T17:57:48.420Z,100190.56
2023-02-23T18:00:19.762Z,100184.50
2023-02-23T18:02:48.204Z,100186.66
2023-02-23T18:05:16.519Z,100186.50
2023-02-23T18:07:48.346Z,100184.50
2023-02-23T18:10:17.393Z,100178.09
2023-02-23T18:12:45.767Z,100182.47
2023-02-23T18:15:13.819Z,100181.78
2023-02-23T18:17:43.225Z,100180.78
2023-02-23T18:20:14.929Z,100185.34
2023-02-23T18:22:43.271Z,100179.94
2023-02-23T18:25:20.682Z,100188.72
2023-02-23T18:27:51.709Z,100181.78
2023-02-23T18:30:20.294Z,100170.31
2023-02-23T18:32:49.886Z,100165.91
2023-02-23T18:35:18.069Z,100163.91
2023-02-23T18:37:46.135Z,100163.75
2023-02-23T18:40:21.257Z,100151.94
2023-02-23T18:42:49.481Z,100150.41
2023-02-23T18:45:18.063Z,100148.41
2023-02-23T18:47:46.084Z,100137.63
2023-02-23T18:50:19.116Z,100142.69
2023-02-23T18:52:48.239Z,100138.44
2023-02-23T18:55:16.526Z,100127.66
2023-02-23T18:57:44.980Z,100130.22
2023-02-23T19:00:14.903Z,100120.41
2023-02-23T19:02:43.759Z,100128.00
2023-02-23T19:05:12.885Z,100135.97
2023-02-23T19:07:42.780Z,100133.94
2023-02-23T19:10:14.473Z,100127.38
2023-02-23T19:12:42.556Z,100128.38
2023-02-23T19:15:12.340Z,100123.16
2023-02-23T19:17:40.579Z,100117.75
2023-02-23T19:20:13.071Z,100121.97
2023-02-23T19:22:43.087Z,100114.56
2023-02-23T19:25:15.392Z,100097.66
2023-02-23T19:27:43.757Z,100114.75
2023-02-23T19:30:14.287Z,100110.03
2023-02-23T19:32:44.370Z,100110.03
2023-02-23T19:35:15.196Z,100110.69
2023-02-23T19:37:49.234Z,100116.31
2023-02-23T19:40:20.802Z,100112.25
2023-02-23T19:42:49.604Z,100112.13
2023-02-23T19:45:18.352Z,100114.50
2023-02-23T19:47:46.499Z,100109.09
2023-02-23T19:50:18.833Z,100096.28
2023-02-23T19:52:49.258Z,100094.44
2023-02-23T19:55:17.300Z,100098.97
2023-02-23T19:57:45.369Z,100093.06
2023-02-23T20:00:14.587Z,100087.50
2023-02-23T20:02:43.766Z,100089.22
2023-02-23T20:05:13.789Z,100093.59
2023-02-23T20:07:41.965Z,100083.47
2023-02-23T20:10:16.964Z,100082.09
2023-02-23T20:12:45.542Z,100082.09
2023-02-23T20:15:14.866Z,100065.72
2023-02-23T20:17:42.954Z,100056.44
2023-02-23T20:20:12.379Z,100072.00
2023-02-23T20:22:41.424Z,100052.41
2023-02-23T20:25:12.627Z,100058.47
2023-02-23T20:27:41.522Z,100062.69
2023-02-23T20:30:10.856Z,100051.03
2023-02-23T20:32:39.240Z,100051.03
2023-02-23T20:35:07.812Z,100052.75
2023-02-23T20:37:35.814Z,100036.00
2023-02-23T20:40:15.813Z,100032.63
2023-02-23T20:42:47.830Z,100033.31
2023-02-23T20:45:19.701Z,100036.00
2023-02-23T20:47:52.017Z,100028.09
2023-02-23T20:50:21.606Z,100023.88
2023-02-23T20:52:50.520Z,100028.75
2023-02-23T20:55:19.866Z,100035.66
2023-02-23T20:57:49.290Z,100037.00
2023-02-23T21:00:22.714Z,100035.03
2023-02-23T21:02:55.651Z,100037.72
2023-02-23T21:05:25.679Z,100009.47
2023-02-23T21:07:55.416Z,100031.13
2023-02-23T21:10:23.483Z,100028.75
2023-02-23T21:12:54.069Z,100020.31
2023-02-23T21:15:22.198Z,100022.69
2023-02-23T21:17:50.649Z,100017.66
2023-02-23T21:20:20.960Z,100017.16
2023-02-23T21:22:50.189Z,100006.00
2023-02-23T21:25:20.508Z,100008.88
2023-02-23T21:27:48.725Z,100004.16
2023-02-23T21:30:20.451Z,99991.31
2023-02-23T21:32:50.179Z,99979.19
2023-02-23T21:35:19.148Z,99979.88
2023-02-23T21:37:48.035Z,99983.06
2023-02-23T21:40:20.638Z,99984.59
2023-02-23T21:42:49.998Z,99979.03
2023-02-23T21:45:20.264Z,99972.28
2023-02-23T21:47:49.922Z,99971.44
2023-02-23T21:50:19.113Z,99969.56
2023-02-23T21:52:48.779Z,99966.03
2023-02-23T21:55:21.895Z,99958.59
2023-02-23T21:57:51.104Z,99960.63
2023-02-23T22:00:20.972Z,99964.00
2023-02-23T22:02:49.218Z,99966.16
2023-02-23T22:05:18.813Z,99952.19
2023-02-23T22:07:51.369Z,99955.72
2023-02-23T22:10:21.320Z,99953.34
2023-02-23T22:12:53.575Z,99952.00
2023-02-23T22:15:27.179Z,99879.72
2023-02-23T22:17:55.223Z,99948.13
2023-02-23T22:20:23.587Z,99951.16
2023-02-23T22:22:51.682Z,99949.50
2023-02-23T22:25:21.036Z,99927.38
2023-02-23T22:27:49.201Z,99937.00
2023-02-23T22:30:17.420Z,99936.16
2023-02-23T22:32:47.695Z,99938.69
2023-02-23T22:35:15.768Z,99945.44
2023-02-23T22:37:43.825Z,99939.03
2023-02-23T22:40:15.144Z,99930.94
2023-02-23T22:42:48.032Z,99937.66
2023-02-23T22:45:17.247Z,99930.06
2023-02-23T22:47:46.854Z,99925.34
2023-02-23T22:50:18.074Z,99924.66
2023-02-23T22:52:46.826Z,99923.50
2023-02-23T22:55:14.933Z,99920.78
2023-02-23T22:57:43.043Z,99927.03
2023-02-23T23:00:13.027Z,99909.16
2023-02-23T23:02:41.161Z,99916.56
2023-02-23T23:05:13.414Z,99914.72
2023-02-23T23:07:42.131Z,99899.72
2023-02-23T23:10:12.091Z,99897.69
2023-02-23T23:12:40.951Z,99893.63
2023-02-23T23:15:14.842Z,99890.94
2023-02-23T23:17:48.143Z,99877.78
2023-02-23T23:20:22.939Z,99885.19
2023-02-23T23:22:51.002Z,99886.22
2023-02-23T23:25:23.123Z,99882.66
2023-02-23T23:27:55.558Z,99879.13
2023-02-23T23:30:26.225Z,99866.47
2023-02-23T23:32:54.456Z,99866.16
2023-02-23T23:35:25.964Z,99866.31
2023-02-23T23:37:54.036Z,99864.44
2023-02-23T23:40:24.426Z,99855.19
2023-02-23T23:42:53.184Z,99860.91
2023-02-23T23:45:24.267Z,99849.78
2023-02-23T23:47:52.448Z,99846.41
2023-02-23T23:50:26.643Z,99851.28
2023-02-23T23:52:57.169Z,99837.13
2023-02-23T23:55:31.025Z,99833.75
2023-02-23T23:58:00.368Z,99824.16
